Time;durP1;ratioP1;P1;durP2;ratioP2;P2;SDS_P1;SDS_P2;PMS_P1;PMS_P2;Temp;Humidity;BMP_temperature;BMP_pressure;BME280_temperature;BME280_humidity;BME280_pressure;Samples;Min_cycle;Max_cycle;Signal;HPM_P1;HPM_P2
2022/04/04 00:00:50;;;;;;;10.90;6.00;;;;;;;1.15;52.57;100131.96;105588;1277;25529;-74
2022/04/04 00:03:17;;;;;;;10.80;6.00;;;;;;;1.19;52.67;100139.02;105707;1277;24096;-78
2022/04/04 00:05:45;;;;;;;10.40;5.60;;;;;;;1.19;52.48;100130.33;105725;1276;22767;-75
2022/04/04 00:08:12;;;;;;;8.70;5.10;;;;;;;1.25;52.43;100130.83;106048;1271;25311;-74
2022/04/04 00:10:39;;;;;;;12.20;5.90;;;;;;;1.28;52.20;100124.29;106128;1271;22553;-74
2022/04/04 00:13:06;;;;;;;10.70;6.30;;;;;;;1.22;51.86;100126.23;105941;1274;22750;-75
2022/04/04 00:15:33;;;;;;;11.60;5.60;;;;;;;1.20;51.90;100127.57;106108;1274;22716;-76
2022/04/04 00:18:11;;;;;;;8.70;5.50;;;;;;;1.20;51.87;100121.15;106276;1274;24377;-76
2022/04/04 00:20:39;;;;;;;9.80;5.10;;;;;;;1.19;51.89;100121.13;106100;1271;22695;-77
2022/04/04 00:23:12;;;;;;;11.00;5.90;;;;;;;1.13;51.83;100119.23;106258;1271;24431;-82
2022/04/04 00:25:41;;;;;;;8.30;5.50;;;;;;;1.12;51.97;100121.48;106202;1271;24384;-80
2022/04/04 00:28:09;;;;;;;10.70;5.10;;;;;;;1.09;52.02;100123.33;106160;1271;22536;-79
2022/04/04 00:30:37;;;;;;;9.50;5.70;;;;;;;1.13;52.07;100122.54;106361;1271;22534;-82
2022/04/04 00:33:05;;;;;;;9.70;5.90;;;;;;;1.09;51.78;100120.39;106267;1274;22526;-79
2022/04/04 00:35:32;;;;;;;9.40;5.70;;;;;;;1.08;51.91;100119.83;106275;1274;22699;-78
2022/04/04 00:38:00;;;;;;;10.70;5.10;;;;;;;1.06;51.92;100120.63;106087;1274;22850;-80
2022/04/04 00:40:27;;;;;;;7.60;4.60;;;;;;;1.05;51.84;100118.36;106190;1271;25337;-76
2022/04/04 00:42:54;;;;;;;10.10;5.30;;;;;;;1.03;51.92;100117.09;106056;1274;22551;-75
2022/04/04 00:45:21;;;;;;;10.00;5.50;;;;;;;1.02;51.76;100111.85;106132;1271;22544;-77
2022/04/04 00:47:48;;;;;;;8.10;5.60;;;;;;;0.99;51.71;100112.83;106074;1274;22803;-77
2022/04/04 00:50:15;;;;;;;10.60;5.80;;;;;;;0.92;51.67;100108.83;105890;1273;24272;-78
2022/04/04 00:52:42;;;;;;;9.40;5.30;;;;;;;0.86;51.72;100108.35;106117;1274;25404;-77
2022/04/04 00:55:10;;;;;;;9.90;5.60;;;;;;;0.82;51.76;100107.36;106041;1274;22746;-79
2022/04/04 00:57:38;;;;;;;10.20;5.80;;;;;;;0.77;51.90;100105.50;106122;1271;22536;-76
2022/04/04 01:00:09;;;;;;;8.10;5.10;;;;;;;0.72;51.87;100099.83;106058;1273;25587;-75
2022/04/04 01:02:40;;;;;;;9.30;5.90;;;;;;;0.64;51.97;100103.27;106066;1271;22526;-75
2022/04/04 01:05:09;;;;;;;7.70;4.70;;;;;;;0.57;52.10;100103.77;106064;1274;22574;-74
2022/04/04 01:07:38;;;;;;;9.60;6.10;;;;;;;0.56;52.06;100102.02;106087;1274;22614;-76
2022/04/04 01:10:08;;;;;;;8.80;5.00;;;;;;;0.57;52.00;100099.94;106092;1271;22523;-74
2022/04/04 01:12:36;;;;;;;11.30;6.00;;;;;;;0.55;51.89;100096.95;106156;1271;22849;-75
2022/04/04 01:15:04;;;;;;;7.60;4.30;;;;;;;0.55;51.99;100097.47;105644;1279;22577;-76
2022/04/04 01:17:30;;;;;;;7.80;4.90;;;;;;;0.50;51.99;100090.23;105587;1279;22631;-75
2022/04/04 01:19:57;;;;;;;7.80;4.80;;;;;;;0.45;52.17;100092.55;105566;1279;24587;-76
2022/04/04 01:22:24;;;;;;;8.40;5.50;;;;;;;0.40;52.23;100084.41;105539;1279;25286;-81
2022/04/04 01:24:52;;;;;;;7.90;4.80;;;;;;;0.37;52.24;100084.86;105547;1279;24228;-79
2022/04/04 01:27:20;;;;;;;9.10;5.20;;;;;;;0.35;52.42;100082.74;105600;1279;22580;-75
2022/04/04 01:29:47;;;;;;;10.20;5.50;;;;;;;0.38;52.61;100082.98;105542;1279;22653;-75
2022/04/04 01:32:14;;;;;;;8.20;4.80;;;;;;;0.36;52.70;100079.46;105451;1280;24128;-76
2022/04/04 01:34:41;;;;;;;8.30;5.00;;;;;;;0.33;52.76;100076.27;105572;1279;25367;-76
2022/04/04 01:37:08;;;;;;;7.30;5.60;;;;;;;0.33;52.68;100075.06;105464;1278;25340;-79
2022/04/04 01:39:35;;;;;;;8.90;5.40;;;;;;;0.32;52.67;100070.17;105040;1283;24259;-82
2022/04/04 01:42:03;;;;;;;12.50;5.70;;;;;;;0.32;52.61;100069.15;105116;1285;24420;-76
2022/04/04 01:44:29;;;;;;;9.40;5.80;;;;;;;0.30;52.66;100065.63;105313;1282;23292;-75
2022/04/04 01:46:58;;;;;;;9.90;4.60;;;;;;;0.27;52.72;100066.77;105115;1284;25455;-82
2022/04/04 01:49:25;;;;;;;6.00;4.20;;;;;;;0.31;52.67;100064.25;105170;1282;22818;-83
2022/04/04 01:51:52;;;;;;;7.60;4.40;;;;;;;0.26;52.48;100061.36;105350;1284;25979;-78
2022/04/04 01:54:18;;;;;;;8.40;4.60;;;;;;;0.23;52.34;100058.69;105749;1279;22501;-75
2022/04/04 01:56:45;;;;;;;8.00;5.50;;;;;;;0.23;52.29;100055.05;106175;1276;25927;-75
2022/04/04 01:59:12;;;;;;;10.40;5.40;;;;;;;0.21;52.06;100051.86;106428;1271;22652;-74
2022/04/04 02:01:41;;;;;;;9.60;5.20;;;;;;;0.21;52.07;100044.23;106453;1270;25245;-73
2022/04/04 02:04:11;;;;;;;8.80;4.60;;;;;;;0.25;51.89;100041.07;106347;1271;22750;-76
2022/04/04 02:06:39;;;;;;;9.00;5.20;;;;;;;0.25;51.63;100037.78;106358;1272;22522;-75
2022/04/04 02:09:07;;;;;;;7.20;4.80;;;;;;;0.28;51.72;100031.11;106496;1271;22704;-75
2022/04/04 02:11:34;;;;;;;8.10;4.80;;;;;;;0.33;51.56;100029.15;106832;1270;24228;-73
2022/04/04 02:14:02;;;;;;;9.50;5.10;;;;;;;0.29;51.20;100025.77;106760;1274;26570;-75
2022/04/04 02:16:30;;;;;;;8.60;4.60;;;;;;;0.25;51.12;100032.40;106741;1274;26564;-79
2022/04/04 02:18:57;;;;;;;9.90;4.50;;;;;;;0.21;51.16;100037.50;106363;1274;25368;-75
2022/04/04 02:21:24;;;;;;;10.00;5.30;;;;;;;0.17;51.28;100033.75;106305;1274;24206;-75
2022/04/04 02:23:54;;;;;;;6.70;4.50;;;;;;;0.15;51.18;100036.63;106312;1274;25249;-76
2022/04/04 02:26:21;;;;;;;7.00;4.70;;;;;;;0.12;51.06;100027.55;105961;1277;26475;-74
2022/04/04 02:28:48;;;;;;;10.70;5.80;;;;;;;0.15;51.06;100027.64;106337;1274;24225;-73
2022/04/04 02:31:15;;;;;;;8.50;4.70;;;;;;;0.13;51.00;100024.47;106023;1274;24377;-74
2022/04/04 02:33:42;;;;;;;10.70;4.90;;;;;;;0.11;50.94;100024.92;106135;1271;25426;-74
2022/04/04 02:36:09;;;;;;;7.40;4.70;;;;;;;0.12;50.98;100028.59;106148;1271;25237;-74
2022/04/04 02:38:37;;;;;;;7.90;4.80;;;;;;;0.12;50.82;100021.83;105998;1276;25257;-74
2022/04/04 02:41:04;;;;;;;7.40;4.80;;;;;;;0.11;50.82;100017.84;106077;1277;25230;-73
2022/04/04 02:43:32;;;;;;;10.50;5.10;;;;;;;0.10;50.69;100016.08;105931;1277;25259;-77
2022/04/04 02:46:01;;;;;;;8.70;5.50;;;;;;;0.14;50.74;100013.22;105658;1279;22653;-77
2022/04/04 02:48:28;;;;;;;6.20;3.90;;;;;;;0.12;50.49;100016.98;105690;1279;24280;-77
2022/04/04 02:50:55;;;;;;;5.00;3.80;;;;;;;0.06;50.60;100003.14;105609;1280;22550;-78
2022/04/04 02:53:22;;;;;;;7.70;5.10;;;;;;;0.06;50.58;100002.10;105090;1287;25262;-76
2022/04/04 02:58:35;;;;;;;10.90;5.20;;;;;;;0.06;50.77;99998.46;105476;1282;23738;-77
2022/04/04 03:01:03;;;;;;;7.30;4.00;;;;;;;0.03;50.93;99999.27;105304;1285;24986;-76
2022/04/04 03:03:31;;;;;;;7.00;3.90;;;;;;;-0.00;50.95;99991.90;105399;1279;24575;-75
2022/04/04 03:05:58;;;;;;;8.90;5.40;;;;;;;-0.01;50.80;99992.21;105765;1279;22529;-77
2022/04/04 03:08:24;;;;;;;8.10;5.20;;;;;;;0.00;50.93;100000.20;105651;1282;22558;-79
2022/04/04 03:10:51;;;;;;;10.40;5.00;;;;;;;-0.01;51.07;99999.16;105773;1274;25229;-80
2022/04/04 03:13:18;;;;;;;8.30;5.50;;;;;;;0.02;51.12;99995.92;105733;1281;22534;-78
2022/04/04 03:15:46;;;;;;;11.20;5.90;;;;;;;0.03;51.12;99992.52;105687;1281;25493;-79
2022/04/04 03:18:12;;;;;;;8.80;6.10;;;;;;;0.02;51.04;99991.45;105443;1281;25235;-77
2022/04/04 03:20:39;;;;;;;8.90;5.50;;;;;;;0.02;51.31;99992.82;105526;1281;22552;-76
2022/04/04 03:23:06;;;;;;;13.80;5.80;;;;;;;-0.00;51.36;99991.05;105653;1281;22576;-76
2022/04/04 03:25:33;;;;;;;15.50;5.80;;;;;;;-0.03;51.29;99988.70;105425;1281;25257;-77
2022/04/04 03:28:00;;;;;;;9.70;5.20;;;;;;;-0.03;51.59;99991.83;105914;1279;24264;-77
2022/04/04 03:30:29;;;;;;;9.80;5.80;;;;;;;-0.06;51.67;99987.23;105973;1278;25363;-74
2022/04/04 03:32:57;;;;;;;9.70;6.30;;;;;;;-0.06;51.88;99979.98;106403;1271;23945;-76
2022/04/04 03:35:28;;;;;;;10.00;6.80;;;;;;;-0.08;51.96;99983.55;106302;1274;22531;-77
2022/04/04 03:37:57;;;;;;;7.80;5.20;;;;;;;-0.09;52.06;99982.13;106439;1271;24223;-77
2022/04/04 03:40:24;;;;;;;9.60;5.10;;;;;;;-0.13;52.26;99980.98;106043;1277;22534;-79
2022/04/04 03:42:56;;;;;;;8.70;5.60;;;;;;;-0.14;52.55;99981.48;106055;1277;26482;-75
2022/04/04 03:45:24;;;;;;;9.60;5.80;;;;;;;-0.12;52.52;99985.69;106009;1277;26563;-74
2022/04/04 03:47:53;;;;;;;9.10;5.60;;;;;;;-0.06;52.46;99985.52;105939;1276;22576;-75
2022/04/04 03:50:21;;;;;;;11.10;5.80;;;;;;;-0.02;52.52;99982.85;105826;1278;26549;-75
2022/04/04 03:52:52;;;;;;;11.30;5.90;;;;;;;-0.00;52.51;99978.39;106008;1277;24259;-74
2022/04/04 03:55:21;;;;;;;8.40;5.50;;;;;;;0.02;52.68;99976.73;105889;1277;24392;-78
2022/04/04 03:57:49;;;;;;;11.40;5.30;;;;;;;0.07;52.70;99983.43;105983;1271;22558;-77
2022/04/04 04:00:17;;;;;;;10.00;5.90;;;;;;;0.04;52.71;99975.58;106166;1271;22563;-79
2022/04/04 04:02:44;;;;;;;9.10;5.40;;;;;;;0.02;52.87;99978.98;106211;1271;23689;-78
2022/04/04 04:05:12;;;;;;;10.00;6.10;;;;;;;0.01;53.02;99969.26;106059;1274;22548;-76
2022/04/04 04:07:40;;;;;;;9.40;5.90;;;;;;;-0.03;53.18;99967.42;106331;1271;24328;-77
2022/04/04 04:10:11;;;;;;;9.40;5.30;;;;;;;-0.01;53.26;99969.71;106111;1272;24219;-77
2022/04/04 04:12:39;;;;;;;11.00;6.40;;;;;;;-0.01;53.32;99972.14;106252;1271;25242;-73
2022/04/04 04:15:09;;;;;;;9.00;5.40;;;;;;;-0.03;53.53;99969.49;106359;1271;24259;-81
2022/04/04 04:17:37;;;;;;;11.20;6.40;;;;;;;-0.02;53.67;99971.27;106327;1271;22555;-79
2022/04/04 04:20:20;;;;;;;8.00;4.70;;;;;;;0.02;53.99;99967.36;106218;1271;22634;-79
2022/04/04 04:22:52;;;;;;;11.00;6.30;;;;;;;0.03;53.96;99970.17;106514;1274;22691;-78
2022/04/04 04:25:22;;;;;;;8.40;5.60;;;;;;;-0.00;54.04;99959.85;106266;1275;22524;-81
2022/04/04 04:27:49;;;;;;;8.10;5.10;;;;;;;0.03;54.16;99966.89;106313;1274;22550;-78
2022/04/04 04:30:17;;;;;;;8.10;5.20;;;;;;;0.08;54.14;99963.38;106316;1274;25120;-83
2022/04/04 04:32:48;;;;;;;8.70;5.40;;;;;;;0.11;54.16;99960.52;106100;1275;22579;-84
2022/04/04 04:35:16;;;;;;;10.70;5.90;;;;;;;0.11;54.23;99956.00;106087;1276;22511;-79
2022/04/04 04:37:44;;;;;;;9.20;5.50;;;;;;;0.05;54.53;99952.05;106091;1277;22538;-83
2022/04/04 04:40:14;;;;;;;10.20;6.40;;;;;;;0.09;54.47;99958.39;105684;1281;22639;-78
2022/04/04 04:42:43;;;;;;;10.80;6.40;;;;;;;0.14;54.75;99951.74;105256;1287;22597;-76
2022/04/04 04:45:12;;;;;;;7.60;5.40;;;;;;;0.20;54.86;99949.84;104980;1288;22604;-79
2022/04/04 04:47:40;;;;;;;9.60;5.10;;;;;;;0.27;54.91;99950.86;105043;1285;22545;-77
2022/04/04 04:50:12;;;;;;;9.10;5.20;;;;;;;0.32;54.81;99952.21;105046;1287;25264;-77
2022/04/04 04:52:40;;;;;;;11.30;6.50;;;;;;;0.28;54.79;99946.58;105149;1286;24312;-81
2022/04/04 04:55:09;;;;;;;10.70;6.10;;;;;;;0.22;54.96;99947.64;105174;1281;22599;-77
2022/04/04 04:57:37;;;;;;;7.80;5.50;;;;;;;0.15;55.34;99944.86;105116;1285;25355;-77
2022/04/04 05:00:07;;;;;;;11.00;5.90;;;;;;;0.17;55.51;99950.45;104940;1284;22664;-76
2022/04/04 05:02:34;;;;;;;9.90;6.20;;;;;;;0.20;55.70;99951.21;105638;1281;22538;-79
2022/04/04 05:05:04;;;;;;;8.70;5.70;;;;;;;0.25;55.70;99952.05;105567;1281;23943;-79
2022/04/04 05:07:32;;;;;;;10.40;6.20;;;;;;;0.29;55.54;99956.80;105721;1281;23990;-79
2022/04/04 05:10:00;;;;;;;11.80;6.40;;;;;;;0.32;55.85;99956.36;105782;1281;22528;-79
2022/04/04 05:12:27;;;;;;;11.70;6.60;;;;;;;0.31;55.89;99955.81;105843;1281;25517;-78
2022/04/04 05:14:53;;;;;;;8.60;5.70;;;;;;;0.29;56.11;99952.30;105920;1278;22632;-81
2022/04/04 05:17:20;;;;;;;10.20;5.60;;;;;;;0.26;56.30;99957.09;106315;1275;22519;-82
2022/04/04 05:19:47;;;;;;;10.30;6.60;;;;;;;0.28;56.53;99957.29;106172;1274;24327;-82
2022/04/04 05:22:14;;;;;;;9.30;5.60;;;;;;;0.27;56.68;99955.38;106185;1274;24277;-84
2022/04/04 05:24:41;;;;;;;9.00;6.00;;;;;;;0.32;56.85;99960.71;106095;1277;25302;-81
2022/04/04 05:27:09;;;;;;;7.80;5.20;;;;;;;0.37;56.89;99966.90;106199;1273;22530;-82
2022/04/04 05:29:37;;;;;;;9.80;6.50;;;;;;;0.42;56.91;99962.33;105735;1274;22540;-82
2022/04/04 05:32:04;;;;;;;13.90;7.20;;;;;;;0.44;57.03;99964.14;106150;1274;24265;-81
2022/04/04 05:34:31;;;;;;;8.40;5.60;;;;;;;0.43;57.65;99964.96;106149;1272;25518;-83
2022/04/04 05:36:59;;;;;;;11.20;7.10;;;;;;;0.34;59.62;99960.23;106084;1275;25412;-87
2022/04/04 05:39:26;;;;;;;13.50;7.10;;;;;;;0.22;60.53;99946.60;106288;1274;22548;-83
2022/04/04 05:41:53;;;;;;;11.10;6.90;;;;;;;0.22;60.47;99959.44;106378;1275;25440;-81
2022/04/04 05:44:20;;;;;;;9.90;6.10;;;;;;;0.29;60.84;99960.95;106224;1277;23941;-82
2022/04/04 05:46:47;;;;;;;12.40;6.70;;;;;;;0.32;62.08;99958.63;106481;1274;24224;-81
2022/04/04 05:49:15;;;;;;;14.20;7.70;;;;;;;0.37;62.34;99960.81;106831;1275;25826;-81
2022/04/04 05:51:43;;;;;;;12.20;7.30;;;;;;;0.36;62.99;99956.28;107384;1274;25853;-81
2022/04/04 05:54:31;;;;;;;12.10;7.20;;;;;;;0.43;63.00;99958.36;106275;1274;23195;-82
2022/04/04 05:56:58;;;;;;;12.20;7.00;;;;;;;0.53;62.93;99955.68;106245;1274;22519;-83
2022/04/04 05:59:26;;;;;;;12.60;7.70;;;;;;;0.50;63.29;99957.84;106149;1274;25259;-81
2022/04/04 06:01:53;;;;;;;11.50;7.80;;;;;;;0.47;63.19;99946.52;106178;1274;25653;-81
2022/04/04 06:04:20;;;;;;;10.10;5.50;;;;;;;0.46;63.30;99953.77;106232;1274;24797;-80
2022/04/04 06:06:47;;;;;;;11.10;8.10;;;;;;;0.50;63.30;99954.91;105977;1275;22907;-82
2022/04/04 06:09:14;;;;;;;12.90;7.30;;;;;;;0.54;63.37;99952.42;106107;1273;23370;-83
2022/04/04 06:11:41;;;;;;;15.90;8.60;;;;;;;0.55;63.70;99950.36;106175;1274;22784;-82
2022/04/04 06:14:08;;;;;;;11.70;7.10;;;;;;;0.51;64.91;99954.25;106070;1273;22605;-80
2022/04/04 06:16:35;;;;;;;12.70;7.50;;;;;;;0.48;64.78;99958.34;106113;1274;22557;-80
2022/04/04 06:19:02;;;;;;;8.00;5.70;;;;;;;0.46;64.25;99958.64;106247;1273;25409;-81
2022/04/04 06:21:29;;;;;;;12.40;7.00;;;;;;;0.43;65.33;99957.01;105984;1274;25239;-82
2022/04/04 06:23:57;;;;;;;12.60;8.10;;;;;;;0.31;68.37;99964.13;106127;1274;23012;-81
2022/04/04 06:26:24;;;;;;;15.40;8.20;;;;;;;0.21;70.35;99963.89;106038;1274;24372;-81
2022/04/04 06:28:51;;;;;;;10.20;6.00;;;;;;;0.11;71.43;99964.66;105914;1275;23973;-80
2022/04/04 06:31:18;;;;;;;14.10;8.60;;;;;;;-0.02;71.53;99959.13;106166;1274;25302;-81
2022/04/04 06:33:45;;;;;;;12.00;7.70;;;;;;;-0.09;71.85;99959.62;106007;1274;25339;-81
2022/04/04 06:36:12;;;;;;;10.50;6.60;;;;;;;-0.12;72.15;99956.96;106202;1273;22534;-82
2022/04/04 06:38:39;;;;;;;14.60;8.90;;;;;;;-0.12;72.49;99961.27;106085;1274;23965;-79
2022/04/04 06:41:06;;;;;;;12.60;8.40;;;;;;;-0.06;72.82;99963.17;106072;1273;22525;-80
2022/04/04 06:43:33;;;;;;;9.70;6.90;;;;;;;0.08;73.03;99957.66;105904;1276;22551;-79
2022/04/04 06:46:00;;;;;;;10.20;7.20;;;;;;;0.17;72.91;99945.94;105988;1274;22859;-79
2022/04/04 06:48:27;;;;;;;11.80;8.30;;;;;;;0.17;72.34;99944.40;105994;1274;22549;-79
2022/04/04 06:50:55;;;;;;;11.30;8.10;;;;;;;0.20;72.35;99947.92;105952;1274;22625;-84
2022/04/04 06:53:22;;;;;;;15.20;8.00;;;;;;;0.27;72.50;99958.48;106056;1273;22763;-80
2022/04/04 06:55:49;;;;;;;13.00;8.70;;;;;;;0.29;71.86;99944.34;105929;1275;22574;-81
2022/04/04 06:58:17;;;;;;;13.50;8.80;;;;;;;0.29;72.02;99952.85;106281;1274;25306;-82
2022/04/04 07:00:45;;;;;;;8.80;5.90;;;;;;;0.41;71.29;99945.85;106163;1276;24283;-78
2022/04/04 07:03:12;;;;;;;13.90;9.30;;;;;;;0.57;70.33;99949.54;106316;1277;22581;-80
2022/04/04 07:05:40;;;;;;;11.70;7.10;;;;;;;0.77;70.08;99945.16;105892;1278;25988;-79
2022/04/04 07:08:08;;;;;;;11.80;8.80;;;;;;;0.90;69.37;99940.42;105561;1277;22532;-81
2022/04/04 07:10:35;;;;;;;12.90;8.90;;;;;;;1.06;69.06;99945.30;105776;1277;22528;-81
2022/04/04 07:13:05;;;;;;;15.60;9.40;;;;;;;1.16;68.45;99946.22;105695;1279;23008;-80
2022/04/04 07:15:32;;;;;;;15.30;9.20;;;;;;;1.18;67.72;99945.57;105780;1279;22541;-80
2022/04/04 07:17:59;;;;;;;13.30;7.50;;;;;;;1.20;67.52;99934.16;105706;1276;201703;-81
2022/04/04 07:20:26;;;;;;;15.00;8.90;;;;;;;1.22;67.32;99919.79;106036;1274;25378;-82
2022/04/04 07:22:53;;;;;;;12.80;8.70;;;;;;;1.28;67.05;99923.03;105855;1275;24141;-80
2022/04/04 07:25:22;;;;;;;11.20;7.60;;;;;;;1.30;66.64;99918.06;106112;1273;22562;-81
2022/04/04 07:27:49;;;;;;;10.70;8.00;;;;;;;1.34;66.43;99919.19;106216;1273;25544;-83
2022/04/04 07:30:19;;;;;;;11.80;7.90;;;;;;;1.39;66.50;99914.95;105994;1274;25248;-81
2022/04/04 07:32:48;;;;;;;10.00;7.70;;;;;;;1.43;66.55;99912.76;105936;1274;25471;-78
2022/04/04 07:35:17;;;;;;;11.90;9.20;;;;;;;1.43;66.39;99906.69;106056;1273;25620;-77
2022/04/04 07:37:45;;;;;;;10.10;7.00;;;;;;;1.51;66.25;99907.36;106045;1273;25266;-80
2022/04/04 07:40:15;;;;;;;11.60;8.10;;;;;;;1.51;66.12;99907.73;106016;1273;25526;-78
2022/04/04 07:42:44;;;;;;;13.90;8.40;;;;;;;1.54;66.09;99898.77;106219;1273;26528;-78
2022/04/04 07:45:15;;;;;;;11.90;9.10;;;;;;;1.56;66.10;99902.61;106628;1274;22561;-80
2022/04/04 07:47:44;;;;;;;11.70;8.30;;;;;;;1.63;66.17;99898.22;106465;1273;22718;-81
2022/04/04 07:50:13;;;;;;;12.40;9.00;;;;;;;1.81;66.19;99892.66;106134;1273;24223;-81
2022/04/04 07:52:40;;;;;;;12.40;8.70;;;;;;;1.94;65.99;99893.77;106274;1273;25245;-82
2022/04/04 07:55:09;;;;;;;13.90;9.10;;;;;;;2.12;66.06;99889.74;107528;1273;22935;-81
2022/04/04 07:57:37;;;;;;;10.30;7.80;;;;;;;2.27;65.16;99891.38;106178;1273;25917;-81
2022/04/04 08:00:07;;;;;;;16.10;8.40;;;;;;;2.29;64.98;99890.38;106111;1275;24285;-81
2022/04/04 08:02:34;;;;;;;10.70;8.70;;;;;;;2.38;64.96;99887.39;106190;1274;24260;-80
2022/04/04 08:05:04;;;;;;;10.60;8.70;;;;;;;2.43;64.78;99885.02;106124;1273;22539;-84
2022/04/04 08:07:31;;;;;;;14.10;9.10;;;;;;;2.48;64.36;99885.29;106551;1273;22557;-82
2022/04/04 08:09:59;;;;;;;12.30;7.70;;;;;;;2.52;64.14;99881.00;106530;1273;22560;-81
2022/04/04 08:12:27;;;;;;;11.90;8.10;;;;;;;2.52;63.95;99883.61;106998;1273;25323;-80
2022/04/04 08:14:55;;;;;;;12.30;9.40;;;;;;;2.53;63.74;99880.15;107273;1273;25303;-81
2022/04/04 08:17:23;;;;;;;14.80;9.10;;;;;;;2.46;63.76;99871.18;107749;1274;22545;-81
2022/04/04 08:19:51;;;;;;;14.80;9.10;;;;;;;2.45;63.87;99874.30;108072;1273;23942;-80
2022/04/04 08:22:19;;;;;;;12.50;8.40;;;;;;;2.48;64.02;99878.86;107627;1273;22701;-81
2022/04/04 08:24:46;;;;;;;12.70;8.40;;;;;;;2.51;63.86;99877.69;107437;1273;25205;-80
2022/04/04 08:27:14;;;;;;;12.20;8.30;;;;;;;2.62;63.78;99879.23;107298;1273;22550;-81
2022/04/04 08:29:42;;;;;;;13.40;8.60;;;;;;;2.73;63.55;99873.67;107628;1273;22497;-81
2022/04/04 08:32:10;;;;;;;13.90;9.20;;;;;;;2.81;63.49;99863.00;107895;1273;22550;-81
2022/04/04 08:34:37;;;;;;;12.10;9.00;;;;;;;3.01;63.17;99864.33;108066;1273;22472;-80
2022/04/04 08:37:04;;;;;;;12.50;9.60;;;;;;;3.08;62.54;99866.84;108597;1273;22700;-84
2022/04/04 08:39:31;;;;;;;14.50;9.00;;;;;;;3.15;62.36;99862.07;108750;1273;22480;-82
2022/04/04 08:41:58;;;;;;;12.10;8.70;;;;;;;3.23;62.30;99852.75;108698;1273;22725;-80
2022/04/04 08:44:27;;;;;;;14.20;9.30;;;;;;;3.38;62.30;99852.24;108712;1273;22531;-80
2022/04/04 08:46:54;;;;;;;12.80;8.30;;;;;;;3.48;61.79;99855.48;108317;1273;22475;-82
2022/04/04 08:49:21;;;;;;;11.20;9.10;;;;;;;3.58;61.39;99848.96;108212;1273;22547;-80
2022/04/04 08:51:49;;;;;;;11.40;8.60;;;;;;;3.63;61.12;99844.67;109313;1273;22857;-80
2022/04/04 08:54:16;;;;;;;12.30;8.60;;;;;;;3.67;60.86;99839.33;106875;1273;22841;-82
2022/04/04 08:56:44;;;;;;;11.30;8.40;;;;;;;3.75;60.90;99842.70;107062;1273;25367;-81
2022/04/04 08:59:11;;;;;;;12.00;9.70;;;;;;;3.82;60.61;99834.75;107984;1273;22745;-82
2022/04/04 09:01:38;;;;;;;9.40;7.70;;;;;;;3.94;60.74;99828.59;106773;1273;24327;-82
2022/04/04 09:04:05;;;;;;;11.70;8.00;;;;;;;4.17;60.66;99826.18;107188;1273;24386;-85
2022/04/04 09:06:51;;;;;;;11.10;9.70;;;;;;;4.26;59.98;99827.46;106498;1273;25711;-81
2022/04/04 09:09:19;;;;;;;11.20;8.40;;;;;;;4.33;59.44;99813.05;106589;1273;25230;-82
2022/04/04 09:12:06;;;;;;;12.10;8.60;;;;;;;4.40;59.66;99802.98;106445;1273;22476;-80
2022/04/04 09:14:51;;;;;;;15.20;9.30;;;;;;;4.49;59.38;99801.83;106930;1273;25248;-81
2022/04/04 09:17:30;;;;;;;9.70;8.20;;;;;;;4.53;59.09;99790.16;106237;1273;26484;-80
2022/04/04 09:19:58;;;;;;;13.80;9.20;;;;;;;4.48;58.60;99794.14;106011;1273;22580;-82
2022/04/04 09:22:26;;;;;;;13.90;9.60;;;;;;;4.58;58.44;99788.45;106246;1273;22555;-80
2022/04/04 09:24:58;;;;;;;11.40;7.80;;;;;;;4.55;58.56;99782.49;106097;1273;22551;-81
2022/04/04 09:27:31;;;;;;;14.10;8.00;;;;;;;4.59;58.53;99782.70;106223;1273;22528;-81
2022/04/04 09:30:07;;;;;;;11.30;7.90;;;;;;;4.67;58.53;99772.80;106781;1274;22574;-80
2022/04/04 09:32:46;;;;;;;7.30;5.70;;;;;;;4.82;57.92;99768.33;107182;1274;22610;-80
2022/04/04 09:35:16;;;;;;;8.50;6.50;;;;;;;4.86;57.66;99768.17;106941;1273;22597;-80
2022/04/04 09:37:45;;;;;;;9.50;7.30;;;;;;;4.91;57.78;99767.49;106988;1273;23957;-82
2022/04/04 09:40:27;;;;;;;10.40;6.40;;;;;;;4.91;57.39;99756.67;106831;1274;22568;-80
2022/04/04 09:42:59;;;;;;;7.90;6.80;;;;;;;4.94;57.55;99762.45;107030;1273;22551;-80
2022/04/04 09:45:30;;;;;;;8.00;5.60;;;;;;;4.92;56.98;99750.92;106593;1273;24287;-84
2022/04/04 09:48:07;;;;;;;8.80;6.50;;;;;;;4.84;56.92;99747.58;106414;1273;22476;-79
2022/04/04 09:50:45;;;;;;;8.00;6.20;;;;;;;4.87;57.27;99737.12;106944;1273;23972;-81
2022/04/04 09:53:21;;;;;;;9.50;6.30;;;;;;;5.04;57.05;99737.52;106334;1273;23396;-83
2022/04/04 09:55:57;;;;;;;7.60;5.30;;;;;;;5.25;56.70;99726.23;106281;1273;23989;-83
2022/04/04 09:58:27;;;;;;;10.00;6.50;;;;;;;5.39;56.21;99734.13;106216;1273;25474;-82
2022/04/04 10:00:56;;;;;;;8.00;6.00;;;;;;;5.56;55.60;99725.05;106056;1273;24681;-82
2022/04/04 10:03:24;;;;;;;8.60;5.90;;;;;;;5.59;55.41;99728.20;106294;1273;22526;-81
2022/04/04 10:06:04;;;;;;;11.50;7.00;;;;;;;5.67;55.06;99727.16;106191;1274;23922;-81
2022/04/04 10:08:32;;;;;;;9.00;6.50;;;;;;;5.76;54.60;99719.64;106051;1273;22644;-81
2022/04/04 10:11:00;;;;;;;8.70;5.70;;;;;;;5.70;54.54;99713.52;106052;1274;22547;-80
2022/04/04 10:13:29;;;;;;;10.20;6.40;;;;;;;5.62;54.72;99713.36;106161;1274;22637;-81
2022/04/04 10:15:56;;;;;;;8.50;4.90;;;;;;;5.65;54.63;99710.73;106166;1273;22541;-81
2022/04/04 10:18:23;;;;;;;7.80;5.50;;;;;;;5.81;54.66;99694.30;106258;1273;24772;-81
2022/04/04 10:20:57;;;;;;;10.20;6.40;;;;;;;5.98;54.21;99692.20;105994;1273;24239;-80
2022/04/04 10:23:26;;;;;;;10.60;7.50;;;;;;;5.94;54.02;99693.40;106232;1273;25401;-80
2022/04/04 10:25:57;;;;;;;12.70;7.70;;;;;;;6.01;53.94;99691.50;106070;1273;22531;-80
2022/04/04 10:28:29;;;;;;;14.30;7.10;;;;;;;6.35;53.82;99676.04;106060;1273;25438;-81
2022/04/04 10:31:10;;;;;;;10.70;6.80;;;;;;;6.51;53.67;99679.48;105977;1273;22545;-80
2022/04/04 10:33:37;;;;;;;9.10;6.40;;;;;;;6.61;52.82;99678.58;106130;1273;25307;-81
2022/04/04 10:36:07;;;;;;;6.80;5.10;;;;;;;6.57;52.42;99672.46;106167;1273;22554;-81
2022/04/04 10:38:37;;;;;;;6.80;5.90;;;;;;;6.38;52.42;99674.30;106119;1273;22548;-81
2022/04/04 10:41:08;;;;;;;7.40;5.00;;;;;;;6.41;52.69;99674.80;106105;1273;22531;-81
2022/04/04 10:43:43;;;;;;;10.50;3.80;;;;;;;6.56;51.83;99677.38;106036;1273;23964;-81
2022/04/04 10:46:17;;;;;;;6.30;3.70;;;;;;;6.46;51.00;99668.14;106153;1273;24298;-80
2022/04/04 10:48:50;;;;;;;5.10;2.60;;;;;;;6.35;50.85;99670.45;106119;1273;22632;-82
2022/04/04 10:51:18;;;;;;;6.80;2.50;;;;;;;6.23;50.01;99663.66;106259;1273;22542;-82
2022/04/04 10:54:10;;;;;;;3.00;2.60;;;;;;;6.16;49.59;99659.14;106325;1274;25544;-82
2022/04/04 10:56:42;;;;;;;3.70;2.20;;;;;;;6.16;49.84;99651.10;106027;1273;25454;-84
2022/04/04 10:59:16;;;;;;;6.10;3.40;;;;;;;6.23;49.88;99650.39;106143;1273;24257;-82
2022/04/04 11:01:51;;;;;;;7.00;3.20;;;;;;;6.35;49.74;99648.41;106308;1273;24237;-82
2022/04/04 11:04:33;;;;;;;7.20;2.60;;;;;;;6.53;49.46;99637.14;106165;1273;24348;-81
2022/04/04 11:10:06;;;;;;;4.00;2.40;;;;;;;6.57;48.00;99642.02;106091;1273;25249;-82
2022/04/04 11:12:56;;;;;;;3.70;2.10;;;;;;;6.60;48.21;99641.66;106225;1273;24078;-81
2022/04/04 11:15:47;;;;;;;11.80;3.20;;;;;;;6.66;48.12;99633.94;106557;1273;24225;-82
2022/04/04 11:18:15;;;;;;;4.60;2.50;;;;;;;6.61;47.74;99633.44;106291;1273;25354;-81
2022/04/04 11:20:49;;;;;;;3.30;2.80;;;;;;;6.57;47.57;99632.23;106074;1274;22691;-84
2022/04/04 11:23:18;;;;;;;4.40;2.90;;;;;;;6.54;47.40;99629.45;106055;1273;24301;-84
2022/04/04 11:25:55;;;;;;;4.00;2.30;;;;;;;6.62;47.67;99625.20;105882;1273;22541;-80
2022/04/04 11:28:25;;;;;;;6.00;2.50;;;;;;;6.99;46.22;99618.16;106040;1273;25398;-82
2022/04/04 11:30:53;;;;;;;5.20;2.90;;;;;;;6.99;46.71;99604.68;106150;1273;22861;-82
2022/04/04 11:33:25;;;;;;;4.70;3.10;;;;;;;7.04;46.26;99622.52;106098;1274;22498;-82
2022/04/04 11:35:53;;;;;;;6.10;3.80;;;;;;;7.04;45.82;99599.58;106032;1273;22534;-85
2022/04/04 11:38:20;;;;;;;4.70;2.50;;;;;;;6.93;45.72;99592.82;106097;1273;22540;-79
2022/04/04 11:40:55;;;;;;;4.10;3.20;;;;;;;6.83;45.83;99596.91;106059;1273;22707;-81